createdAt,value
2023-03-16T11:07:50.004Z,11.98
2023-03-16T11:10:46.037Z,6.03
2023-03-16T11:13:21.468Z,7.50
2023-03-16T11:15:57.463Z,8.40
2023-03-16T11:18:36.811Z,4.93
2023-03-16T11:21:13.111Z,8.52
2023-03-16T11:23:48.427Z,8.00
2023-03-16T11:26:32.554Z,3.70
2023-03-16T11:29:09.516Z,7.55
2023-03-16T11:31:42.714Z,5.40
2023-03-16T11:34:18.823Z,8.32
2023-03-16T11:37:05.428Z,4.95
2023-03-16T11:40:34.160Z,4.72
2023-03-16T11:43:22.833Z,4.97
2023-03-16T11:46:09.050Z,4.95
2023-03-16T11:48:44.870Z,5.72
2023-03-16T11:51:36.864Z,6.28
2023-03-16T11:54:33.593Z,3.90
2023-03-16T11:57:03.803Z,5.12
2023-03-16T11:59:37.636Z,14.73
2023-03-16T12:02:14.168Z,6.32
2023-03-16T12:04:50.953Z,5.90
2023-03-16T12:07:36.584Z,4.45
2023-03-16T12:10:20.285Z,7.32
2023-03-16T12:13:33.734Z,3.47
2023-03-16T12:16:15.261Z,4.85
2023-03-16T12:18:54.658Z,2.83
2023-03-16T12:21:28.211Z,4.32
2023-03-16T12:24:00.423Z,4.18
2023-03-16T12:26:32.586Z,4.75
2023-03-16T12:29:08.553Z,5.57
2023-03-16T12:31:55.919Z,10.02
2023-03-16T12:34:34.529Z,3.30
2023-03-16T12:37:15.059Z,4.15
2023-03-16T12:40:15.756Z,6.72
2023-03-16T12:42:55.354Z,3.72
2023-03-16T12:45:48.487Z,5.55
2023-03-16T12:48:25.132Z,3.50
2023-03-16T12:50:58.612Z,4.95
2023-03-16T12:53:39.271Z,6.65
2023-03-16T12:56:10.089Z,3.28
2023-03-16T12:58:46.076Z,3.58
2023-03-16T13:01:15.409Z,3.05
2023-03-16T13:03:46.778Z,3.28
2023-03-16T13:06:20.576Z,7.10
2023-03-16T13:08:54.943Z,5.10
2023-03-16T13:11:22.203Z,3.08
2023-03-16T13:14:12.954Z,5.00
2023-03-16T13:16:41.241Z,3.95
2023-03-16T13:19:29.576Z,3.05
2023-03-16T13:22:20.958Z,2.67
2023-03-16T13:24:53.051Z,4.28
2023-03-16T13:27:28.434Z,4.18
2023-03-16T13:29:59.110Z,2.28
2023-03-16T13:32:32.064Z,6.40
2023-03-16T13:35:02.277Z,3.92
2023-03-16T13:37:30.141Z,13.82
2023-03-16T13:40:00.054Z,2.62
2023-03-16T13:42:32.609Z,3.35
2023-03-16T13:45:11.388Z,2.87
2023-03-16T13:47:43.468Z,2.62
2023-03-16T13:50:13.699Z,4.28
2023-03-16T13:52:43.248Z,6.25
2023-03-16T13:55:17.441Z,1.95
2023-03-16T13:57:46.485Z,3.28
2023-03-16T14:00:18.116Z,4.62
2023-03-16T14:02:48.843Z,3.83
2023-03-16T14:05:24.463Z,4.78
2023-03-16T14:07:52.930Z,7.75
2023-03-16T14:10:21.802Z,3.42
2023-03-16T14:13:07.068Z,6.75
2023-03-16T14:15:37.366Z,2.58
2023-03-16T14:18:21.370Z,5.40
2023-03-16T14:20:56.322Z,4.35
2023-03-16T14:23:31.573Z,3.22
2023-03-16T14:25:59.382Z,3.30
2023-03-16T14:28:32.290Z,3.35
2023-03-16T14:31:13.421Z,2.83
2023-03-16T14:33:46.050Z,5.65
2023-03-16T14:36:18.709Z,3.25
2023-03-16T14:38:54.390Z,2.45
2023-03-16T14:41:23.654Z,6.55
2023-03-16T14:44:04.286Z,5.60
2023-03-16T14:46:42.430Z,5.68
2023-03-16T14:49:27.945Z,4.93
2023-03-16T14:52:00.445Z,3.42
2023-03-16T14:54:28.688Z,4.25
2023-03-16T14:57:01.841Z,2.53
2023-03-16T14:59:29.176Z,5.07
2023-03-16T15:01:58.068Z,3.87
2023-03-16T15:04:31.297Z,5.70
2023-03-16T15:06:59.055Z,4.00
2023-03-16T15:09:46.056Z,6.97
2023-03-16T15:12:19.812Z,6.47
2023-03-16T15:15:06.919Z,3.33
2023-03-16T15:17:34.366Z,3.55
2023-03-16T15:20:01.535Z,2.95
2023-03-16T15:22:35.603Z,4.22
2023-03-16T15:25:38.568Z,2.83
2023-03-16T15:28:25.747Z,6.62
2023-03-16T15:30:58.059Z,3.15
2023-03-16T15:33:26.594Z,12.75
2023-03-16T15:35:57.130Z,3.53
2023-03-16T15:38:31.390Z,3.90
2023-03-16T15:40:59.672Z,3.15
2023-03-16T15:43:29.293Z,3.30
2023-03-16T15:45:57.583Z,4.32
2023-03-16T15:48:25.471Z,8.13
2023-03-16T15:50:54.530Z,8.45
2023-03-16T15:53:38.519Z,7.82
2023-03-16T15:56:17.427Z,7.28
2023-03-16T15:58:46.604Z,2.25
2023-03-16T16:01:22.766Z,4.30
2023-03-16T16:03:54.117Z,2.83
2023-03-16T16:06:22.201Z,7.85
2023-03-16T16:08:49.837Z,3.45
2023-03-16T16:11:22.372Z,4.62
2023-03-16T16:13:50.468Z,5.43
2023-03-16T16:16:19.468Z,3.60
2023-03-16T16:18:48.367Z,2.15
2023-03-16T16:21:24.548Z,4.00
2023-03-16T16:23:52.789Z,2.95
2023-03-16T16:26:50.005Z,8.55
2023-03-16T16:29:22.601Z,5.28
2023-03-16T16:31:51.655Z,5.72
2023-03-16T16:34:23.898Z,6.03
2023-03-16T16:36:51.370Z,5.32
2023-03-16T16:39:18.487Z,7.15
2023-03-16T16:41:46.161Z,12.37
2023-03-16T16:44:21.485Z,5.82
2023-03-16T16:46:50.358Z,8.73
2023-03-16T16:49:21.032Z,8.77
2023-03-16T16:51:48.148Z,7.75
2023-03-16T16:54:18.492Z,8.23
2023-03-16T16:56:46.776Z,14.30
2023-03-16T16:59:32.410Z,6.55
2023-03-16T17:02:03.250Z,9.68
2023-03-16T17:04:30.763Z,8.95
2023-03-16T17:07:01.881Z,8.80
2023-03-16T17:09:30.702Z,9.77
2023-03-16T17:12:01.069Z,9.63
2023-03-16T17:14:28.570Z,9.38
2023-03-16T17:16:59.814Z,8.25
2023-03-16T17:19:28.131Z,6.32
2023-03-16T17:21:57.431Z,6.93
2023-03-16T17:24:25.150Z,5.57
2023-03-16T17:26:55.331Z,6.47
2023-03-16T17:29:25.758Z,9.38
2023-03-16T17:31:53.163Z,32.15
2023-03-16T17:34:25.918Z,42.58
2023-03-16T17:36:57.631Z,35.00
2023-03-16T17:39:29.958Z,20.12
2023-03-16T17:42:19.162Z,15.40
2023-03-16T17:44:48.668Z,14.65
2023-03-16T17:47:17.288Z,12.50
2023-03-16T17:49:48.524Z,15.23
2023-03-16T17:52:18.843Z,13.55
2023-03-16T17:54:50.471Z,19.52
2023-03-16T17:57:22.187Z,15.50
2023-03-16T17:59:49.240Z,16.12
2023-03-16T18:02:50.118Z,18.62
2023-03-16T18:05:20.983Z,22.70
2023-03-16T18:07:48.699Z,25.98
2023-03-16T18:10:26.258Z,33.88
2023-03-16T18:12:58.513Z,21.75
2023-03-16T18:15:29.357Z,15.45
2023-03-16T18:17:58.432Z,16.27
2023-03-16T18:20:33.695Z,36.80
2023-03-16T18:23:09.350Z,29.87
2023-03-16T18:25:42.024Z,32.85
2023-03-16T18:28:11.316Z,32.67
2023-03-16T18:30:43.631Z,31.55
2023-03-16T18:33:23.710Z,34.45
2023-03-16T18:35:52.750Z,33.47
2023-03-16T18:38:39.273Z,25.62
2023-03-16T18:41:23.447Z,20.27
2023-03-16T18:43:53.879Z,22.48
2023-03-16T18:46:33.248Z,26.37
2023-03-16T18:49:09.921Z,23.12
2023-03-16T18:51:37.278Z,25.20
2023-03-16T18:54:20.449Z,30.23
2023-03-16T18:56:48.546Z,20.92
2023-03-16T18:59:17.201Z,20.67
2023-03-16T19:01:45.581Z,19.40
2023-03-16T19:04:23.855Z,18.30
2023-03-16T19:06:54.092Z,23.17
2023-03-16T19:09:27.737Z,14.30
2023-03-16T19:11:55.439Z,15.73
2023-03-16T19:14:34.156Z,17.10
2023-03-16T19:17:01.638Z,15.88
2023-03-16T19:19:28.964Z,12.93
2023-03-16T19:22:09.756Z,7.97
2023-03-16T19:24:48.744Z,14.75
2023-03-16T19:27:21.837Z,12.25
2023-03-16T19:29:52.139Z,7.97
2023-03-16T19:32:21.515Z,5.87
2023-03-16T19:34:49.086Z,7.15
2023-03-16T19:37:19.858Z,7.15
2023-03-16T19:39:47.159Z,7.40
2023-03-16T19:42:30.071Z,14.18
2023-03-16T19:44:57.155Z,10.68
2023-03-16T19:47:31.009Z,11.27
2023-03-16T19:49:59.049Z,11.65
2023-03-16T19:52:28.310Z,15.77
2023-03-16T19:54:55.375Z,15.73
2023-03-16T19:57:22.448Z,10.82
2023-03-16T19:59:55.455Z,15.82
2023-03-16T20:02:28.539Z,15.13
2023-03-16T20:04:56.786Z,14.37
2023-03-16T20:07:24.293Z,15.40
2023-03-16T20:09:51.509Z,13.13
2023-03-16T20:12:26.081Z,12.63
2023-03-16T20:17:23.711Z,12.27
2023-03-16T20:19:51.619Z,15.85
2023-03-16T20:22:29.144Z,16.77
2023-03-16T20:24:58.047Z,17.52
2023-03-16T20:27:27.877Z,21.58
2023-03-16T20:29:55.042Z,17.92
2023-03-16T20:32:27.741Z,17.92
2023-03-16T20:34:54.863Z,22.62
2023-03-16T20:37:24.298Z,24.25
2023-03-16T20:39:54.178Z,20.30
2023-03-16T20:42:28.876Z,18.45
2023-03-16T20:44:56.541Z,23.85
2023-03-16T20:47:25.692Z,19.27
2023-03-16T20:49:55.125Z,21.98
2023-03-16T20:52:28.837Z,21.30
2023-03-16T20:54:58.056Z,16.83
2023-03-16T20:57:29.093Z,16.17
2023-03-16T20:59:56.561Z,11.98
2023-03-16T21:02:34.033Z,16.80
2023-03-16T21:05:04.134Z,12.90
2023-03-16T21:07:32.045Z,14.45
2023-03-16T21:09:59.183Z,11.95
2023-03-16T21:12:32.746Z,15.23
2023-03-16T21:15:02.543Z,9.73
2023-03-16T21:17:36.631Z,12.57
2023-03-16T21:20:15.856Z,16.95
2023-03-16T21:22:43.587Z,7.62
2023-03-16T21:25:23.676Z,9.65
2023-03-16T21:27:54.092Z,10.23
2023-03-16T21:30:32.469Z,8.52
2023-03-16T21:33:01.907Z,11.07
2023-03-16T21:35:35.414Z,10.82
2023-03-16T21:38:13.742Z,9.93
2023-03-16T21:40:41.311Z,12.05
2023-03-16T21:43:11.991Z,11.73
2023-03-16T21:45:40.078Z,10.80
2023-03-16T21:48:20.338Z,10.60
2023-03-16T21:50:49.090Z,8.85
2023-03-16T21:53:28.696Z,13.05
2023-03-16T21:55:57.133Z,9.73
2023-03-16T21:58:24.619Z,13.15
2023-03-16T22:00:53.642Z,15.60
2023-03-16T22:03:49.718Z,8.13
2023-03-16T22:06:17.942Z,8.20
2023-03-16T22:08:45.605Z,11.18
2023-03-16T22:11:18.761Z,6.80
2023-03-16T22:13:46.784Z,7.17
2023-03-16T22:16:20.602Z,13.13
2023-03-16T22:18:50.124Z,7.30
2023-03-16T22:21:40.923Z,8.13
2023-03-16T22:24:18.037Z,8.95
2023-03-16T22:26:49.085Z,9.38
2023-03-16T22:29:26.233Z,9.75
2023-03-16T22:31:57.902Z,11.40
2023-03-16T22:34:30.135Z,7.90
2023-03-16T22:36:58.201Z,12.65
2023-03-16T22:39:25.679Z,9.45
2023-03-16T22:41:52.817Z,12.85
2023-03-16T22:44:22.826Z,17.65
2023-03-16T22:46:51.053Z,12.75
2023-03-16T22:49:22.297Z,10.05
2023-03-16T22:51:51.781Z,12.77
2023-03-16T22:54:24.231Z,8.43
2023-03-16T22:56:51.602Z,12.15
2023-03-16T22:59:22.446Z,14.05
2023-03-16T23:01:50.448Z,11.75
2023-03-16T23:04:24.720Z,8.32
2023-03-16T23:06:53.752Z,15.93
2023-03-16T23:09:21.945Z,10.63
2023-03-16T23:11:54.405Z,7.03
2023-03-16T23:14:24.703Z,8.35
2023-03-16T23:16:52.684Z,10.63
2023-03-16T23:19:29.665Z,7.25
2023-03-16T23:22:01.844Z,10.88
2023-03-16T23:24:29.401Z,9.75
2023-03-16T23:26:57.225Z,10.85
2023-03-16T23:29:26.164Z,8.40
2023-03-16T23:31:54.560Z,11.82
2023-03-16T23:34:24.806Z,6.70
2023-03-16T23:36:52.592Z,9.68
2023-03-16T23:39:19.907Z,9.68
2023-03-16T23:41:49.657Z,7.03
2023-03-16T23:44:23.368Z,10.38
2023-03-16T23:46:51.530Z,9.07
2023-03-16T23:49:28.851Z,8.38
2023-03-16T23:51:59.379Z,7.22
2023-03-16T23:54:29.743Z,11.60
2023-03-16T23:56:57.631Z,7.25
2023-03-16T23:59:26.588Z,7.97
